Time;durP1;ratioP1;P1;durP2;ratioP2;P2;SDS_P1;SDS_P2;PMS_P1;PMS_P2;Temp;Humidity;BMP_temperature;BMP_pressure;BME280_temperature;BME280_humidity;BME280_pressure;Samples;Min_cycle;Max_cycle;Signal;HPM_P1;HPM_P2
2023/01/18 00:37:27;;;;;;;63.20;14.48;;;14.10;99.90;;;;;;5995498;23;20036;-92
2023/01/18 01:07:06;;;;;;;63.08;14.93;;;13.80;99.90;;;;;;4958004;28;20038;-94
2023/01/18 01:09:32;;;;;;;65.45;16.73;;;13.90;99.90;;;;;;4942306;28;20030;-90
2023/01/18 07:29:15;;;;;;;57.22;16.48;;;15.00;99.90;;;;;;5677775;23;19928;-96
2023/01/18 07:31:45;;;;;;;40.92;15.50;;;15.00;99.90;;;;;;4961348;28;20117;-94
2023/01/18 07:34:14;;;;;;;50.75;14.48;;;15.00;99.90;;;;;;4977326;28;20038;-94
2023/01/18 07:36:41;;;;;;;46.58;13.23;;;15.10;99.90;;;;;;4963812;28;20512;-95
2023/01/18 07:39:09;;;;;;;54.60;13.65;;;15.20;99.90;;;;;;4977454;28;20038;-95
2023/01/18 07:41:46;;;;;;;37.22;14.02;;;15.50;99.90;;;;;;4960983;28;20031;-94
2023/01/18 07:44:16;;;;;;;33.65;16.20;;;15.80;99.90;;;;;;4975670;28;20030;-93
2023/01/18 07:46:43;;;;;;;38.13;16.27;;;15.80;99.90;;;;;;4975534;28;20065;-93
2023/01/18 07:49:09;;;;;;;29.65;15.25;;;15.70;99.90;;;;;;4960713;28;20034;-93
2023/01/18 07:51:36;;;;;;;26.15;15.52;;;15.50;99.90;;;;;;4959806;28;20034;-94
2023/01/18 07:54:02;;;;;;;31.27;15.52;;;15.60;99.90;;;;;;4959574;28;20031;-94
2023/01/18 07:56:29;;;;;;;27.10;15.05;;;15.60;99.90;;;;;;4975143;28;20176;-95
2023/01/18 07:58:56;;;;;;;21.13;15.32;;;15.70;99.90;;;;;;4959688;28;20023;-94
2023/01/18 08:01:24;;;;;;;27.98;14.52;;;15.70;99.90;;;;;;4960280;28;20035;-93
2023/01/18 08:03:57;;;;;;;29.08;14.20;;;15.60;99.90;;;;;;4974901;28;20026;-93
2023/01/18 08:06:33;;;;;;;22.65;13.25;;;15.70;99.90;;;;;;4976229;28;20110;-93
2023/01/18 08:09:32;;;;;;;15.55;13.23;;;15.80;99.90;;;;;;4976497;28;20114;-95
2023/01/18 08:12:02;;;;;;;21.17;14.20;;;15.90;99.90;;;;;;4976069;28;20047;-93
2023/01/18 08:14:49;;;;;;;19.70;13.85;;;16.10;99.90;;;;;;4959730;28;20448;-93
2023/01/18 08:17:29;;;;;;;15.52;13.93;;;16.20;99.90;;;;;;4960017;28;20055;-93
2023/01/18 08:19:56;;;;;;;14.65;13.25;;;16.20;99.90;;;;;;4959765;28;20035;-95
2023/01/18 08:22:34;;;;;;;23.73;13.63;;;16.30;99.90;;;;;;4959443;28;20022;-93
2023/01/18 08:25:29;;;;;;;19.35;14.02;;;16.30;99.90;;;;;;4975307;28;20058;-94
2023/01/18 08:27:59;;;;;;;18.67;13.82;;;16.40;99.90;;;;;;4958808;28;20049;-94
2023/01/18 08:30:29;;;;;;;19.20;13.93;;;16.40;99.90;;;;;;4971435;28;20059;-94
2023/01/18 08:33:04;;;;;;;21.13;14.52;;;16.40;99.90;;;;;;4959843;28;20023;-93
2023/01/18 08:35:45;;;;;;;26.55;13.68;;;16.50;99.90;;;;;;4975695;28;20062;-94
2023/01/18 08:38:14;;;;;;;24.65;14.90;;;16.50;99.90;;;;;;4943062;28;20030;-94
2023/01/18 08:40:41;;;;;;;25.52;14.60;;;16.60;99.90;;;;;;4939001;29;20151;-93
2023/01/18 08:43:12;;;;;;;26.20;16.05;;;16.70;99.90;;;;;;4923559;29;20043;-94
2023/01/18 08:45:38;;;;;;;27.23;15.65;;;16.70;99.90;;;;;;4923068;29;20527;-93
2023/01/18 08:48:09;;;;;;;25.08;15.38;;;16.80;99.90;;;;;;4922941;29;20035;-95
2023/01/18 08:50:38;;;;;;;28.92;15.38;;;17.00;99.90;;;;;;4922911;29;20047;-95
2023/01/18 08:53:05;;;;;;;21.92;15.45;;;17.00;99.90;;;;;;4922959;29;20034;-94
2023/01/18 08:55:32;;;;;;;30.52;15.48;;;17.20;99.90;;;;;;4938974;29;20051;-94
2023/01/18 08:57:59;;;;;;;30.65;16.92;;;17.10;99.90;;;;;;4922624;29;20090;-94
2023/01/18 09:00:30;;;;;;;30.05;17.08;;;17.10;99.90;;;;;;4923015;29;20102;-95
2023/01/18 09:02:57;;;;;;;28.75;16.77;;;17.20;99.90;;;;;;4922896;29;20114;-94
2023/01/18 09:05:25;;;;;;;25.95;16.42;;;17.30;99.90;;;;;;4926755;29;20039;-92
2023/01/18 09:07:58;;;;;;;38.78;17.42;;;17.30;99.90;;;;;;4926757;29;20031;-93
2023/01/18 09:10:25;;;;;;;34.50;16.77;;;17.50;99.90;;;;;;4926694;29;20393;-96
2023/01/18 09:12:54;;;;;;;29.27;17.77;;;17.60;99.90;;;;;;4946216;28;20026;-93
2023/01/18 09:15:21;;;;;;;42.38;18.65;;;17.60;99.90;;;;;;4946078;28;20419;-93
2023/01/18 09:17:47;;;;;;;32.35;17.60;;;17.80;99.90;;;;;;4946377;28;20057;-95
2023/01/18 09:20:13;;;;;;;32.38;17.08;;;18.10;99.90;;;;;;4946434;28;20500;-95
2023/01/18 09:22:41;;;;;;;35.08;17.27;;;18.40;99.90;;;;;;4947624;28;20022;-93
2023/01/18 09:25:09;;;;;;;31.08;17.08;;;18.70;99.90;;;;;;4946861;28;20493;-93
2023/01/18 09:27:35;;;;;;;37.78;17.25;;;18.80;99.90;;;;;;4946840;28;20027;-93
2023/01/18 09:30:08;;;;;;;31.02;15.07;;;18.80;99.90;;;;;;4943405;29;20051;-93
2023/01/18 09:32:39;;;;;;;20.75;14.57;;;18.80;99.90;;;;;;4959343;29;20031;-94
2023/01/18 09:35:07;;;;;;;29.55;14.63;;;18.70;99.90;;;;;;4959278;29;20031;-93
2023/01/18 09:37:36;;;;;;;24.23;14.80;;;18.90;99.90;;;;;;4944072;29;20381;-94
2023/01/18 09:40:06;;;;;;;31.60;14.40;;;18.70;99.90;;;;;;4959031;29;20093;-95
2023/01/18 09:42:43;;;;;;;32.90;15.35;;;18.70;99.90;;;;;;4942732;29;20035;-92
2023/01/18 09:45:34;;;;;;;26.77;14.52;;;18.80;99.90;;;;;;4959048;29;20102;-94
2023/01/18 09:48:05;;;;;;;28.23;15.35;;;18.60;99.90;;;;;;4958903;29;20023;-93
2023/01/18 09:50:44;;;;;;;21.85;14.65;;;18.60;99.90;;;;;;4959040;29;20032;-95
2023/01/18 09:53:39;;;;;;;27.58;15.55;;;18.60;99.90;;;;;;4959050;29;20039;-94
2023/01/18 09:56:31;;;;;;;24.85;15.65;;;18.30;99.90;;;;;;4955822;29;20039;-93
2023/01/18 09:59:25;;;;;;;25.55;14.82;;;18.20;99.90;;;;;;4955933;29;20115;-93
2023/01/18 10:01:52;;;;;;;27.67;15.20;;;18.00;99.90;;;;;;4923776;29;20039;-94
2023/01/18 10:04:31;;;;;;;25.17;15.65;;;18.00;99.90;;;;;;4939506;29;20028;-94
2023/01/18 10:07:02;;;;;;;30.63;14.68;;;18.00;99.90;;;;;;4939860;29;20059;-92
2023/01/18 10:09:37;;;;;;;27.92;14.85;;;18.00;99.90;;;;;;4923589;29;20032;-93
2023/01/18 10:12:29;;;;;;;34.03;15.40;;;18.00;99.90;;;;;;4924052;29;20063;-93
2023/01/18 10:15:16;;;;;;;23.40;13.82;;;18.10;99.90;;;;;;4939226;29;20118;-94
2023/01/18 10:17:44;;;;;;;28.60;14.10;;;18.10;99.90;;;;;;4939042;29;20066;-92
2023/01/18 10:20:35;;;;;;;19.02;14.07;;;18.10;99.90;;;;;;4938726;29;20036;-93
2023/01/18 10:23:14;;;;;;;19.80;14.93;;;18.00;99.90;;;;;;4922949;29;20118;-91
2023/01/18 10:25:52;;;;;;;27.90;15.80;;;18.00;99.90;;;;;;4924396;29;20035;-93
2023/01/18 10:28:38;;;;;;;33.08;14.95;;;18.00;99.90;;;;;;4922957;29;20118;-90
2023/01/18 10:31:40;;;;;;;30.27;14.93;;;18.20;99.90;;;;;;4938504;29;20055;-92
2023/01/18 10:34:24;;;;;;;32.22;16.10;;;18.30;99.90;;;;;;4903393;29;20122;-93
2023/01/18 10:36:56;;;;;;;;;;;18.30;99.90;;;;;;4942049;29;20043;-93
2023/01/18 10:39:40;;;;;;;26.52;15.52;;;18.30;99.90;;;;;;4957252;29;20337;-93
2023/01/18 10:42:44;;;;;;;31.50;15.68;;;18.30;99.90;;;;;;4957752;28;20046;-93
2023/01/18 10:45:26;;;;;;;26.35;15.95;;;18.10;99.90;;;;;;4898794;29;20036;-92
2023/01/18 10:47:55;;;;;;;32.80;16.55;;;18.20;99.90;;;;;;4899251;29;20566;-94
2023/01/18 10:50:34;;;;;;;44.08;16.27;;;18.30;99.90;;;;;;4899215;29;20032;-93
2023/01/18 10:53:26;;;;;;;59.25;18.30;;;18.30;99.90;;;;;;4899717;29;20033;-93
2023/01/18 10:56:01;;;;;;;57.40;17.80;;;18.30;99.90;;;;;;4883771;29;20145;-92
2023/01/18 10:58:39;;;;;;;58.15;16.83;;;18.50;99.90;;;;;;4899437;29;20036;-93
2023/01/18 11:01:18;;;;;;;74.90;18.50;;;18.40;99.90;;;;;;4899043;29;20056;-92
2023/01/18 11:03:53;;;;;;;62.30;20.67;;;18.50;99.90;;;;;;4899064;29;20029;-93
2023/01/18 11:06:20;;;;;;;75.10;19.85;;;18.30;99.90;;;;;;4899067;29;20029;-94
2023/01/18 11:08:49;;;;;;;80.30;19.70;;;18.30;99.90;;;;;;4883704;29;20036;-93
2023/01/18 11:14:29;;;;;;;79.97;19.98;;;18.20;99.90;;;;;;4883359;29;20048;-90
2023/01/18 11:17:10;;;;;;;79.63;19.40;;;18.10;99.90;;;;;;4898676;29;20052;-93
2023/01/18 11:19:37;;;;;;;93.90;21.70;;;18.10;99.90;;;;;;4900730;29;20035;-93
2023/01/18 11:22:15;;;;;;;100.88;22.45;;;18.10;99.90;;;;;;4956573;29;20042;-91
2023/01/18 11:24:42;;;;;;;84.28;20.90;;;18.20;99.90;;;;;;4956348;28;20035;-92
2023/01/18 11:27:20;;;;;;;88.07;21.35;;;18.20;99.90;;;;;;4939658;29;20024;-92
2023/01/18 11:29:48;;;;;;;83.45;21.17;;;18.00;99.90;;;;;;4955948;28;20051;-92
2023/01/18 11:32:28;;;;;;;86.80;22.13;;;18.10;99.90;;;;;;4956710;28;20024;-94
2023/01/18 11:34:58;;;;;;;92.20;22.40;;;18.20;99.90;;;;;;4956136;28;20027;-92
2023/01/18 11:37:35;;;;;;;97.47;20.77;;;18.10;99.90;;;;;;4940040;29;20039;-91
2023/01/18 11:40:26;;;;;;;93.60;21.70;;;18.10;99.90;;;;;;4956211;29;20460;-92
2023/01/18 11:43:02;;;;;;;112.00;22.52;;;17.80;99.90;;;;;;4940080;29;20393;-93
2023/01/18 11:46:11;;;;;;;108.03;24.10;;;17.90;99.90;;;;;;4955987;28;20086;-93
2023/01/18 11:48:47;;;;;;;92.80;22.25;;;17.50;99.90;;;;;;4955410;29;20134;-92
2023/01/18 11:51:27;;;;;;;112.88;22.73;;;17.40;99.90;;;;;;4955753;29;20050;-92
2023/01/18 11:54:21;;;;;;;124.63;22.20;;;17.50;99.90;;;;;;4955778;29;20060;-91
2023/01/18 11:56:50;;;;;;;120.40;24.08;;;17.60;99.90;;;;;;4939819;29;20079;-92
2023/01/18 11:59:44;;;;;;;129.18;23.25;;;17.50;99.90;;;;;;4939614;29;20130;-91
2023/01/18 12:02:38;;;;;;;117.50;23.30;;;17.60;99.90;;;;;;4955614;29;20070;-92
2023/01/18 12:05:28;;;;;;;123.72;24.13;;;17.50;99.90;;;;;;4955262;29;20031;-92
2023/01/18 12:08:22;;;;;;;110.82;24.05;;;17.30;99.90;;;;;;4955516;29;20098;-90
2023/01/18 12:11:01;;;;;;;126.95;25.17;;;17.20;99.90;;;;;;4955507;28;20508;-92
2023/01/18 12:13:58;;;;;;;150.25;24.30;;;17.10;99.90;;;;;;4939959;29;20426;-91
2023/01/18 12:16:31;;;;;;;155.80;25.42;;;17.10;99.90;;;;;;4955231;29;20039;-91
2023/01/18 12:19:10;;;;;;;132.63;26.70;;;17.10;99.90;;;;;;4955316;28;20442;-92
2023/01/18 12:22:15;;;;;;;139.70;26.02;;;17.10;99.90;;;;;;4955176;29;20058;-91
2023/01/18 12:24:59;;;;;;;139.60;26.13;;;17.20;99.90;;;;;;4955232;28;20114;-91
2023/01/18 12:28:06;;;;;;;151.97;26.23;;;17.20;99.90;;;;;;4955321;28;20035;-92
2023/01/18 12:30:53;;;;;;;143.25;26.05;;;17.30;99.90;;;;;;4935841;29;20043;-91
2023/01/18 12:33:41;;;;;;;160.60;26.75;;;17.40;99.90;;;;;;4920229;29;20073;-95
2023/01/18 12:36:11;;;;;;;156.43;26.10;;;17.40;99.90;;;;;;4920033;29;20079;-92
2023/01/18 12:38:48;;;;;;;167.32;25.50;;;17.20;99.90;;;;;;4935483;29;20079;-93
2023/01/18 12:41:15;;;;;;;143.20;25.40;;;17.30;99.90;;;;;;4920321;29;20027;-93
2023/01/18 12:44:24;;;;;;;155.35;26.65;;;17.20;99.90;;;;;;4920530;29;20024;-91
2023/01/18 12:47:33;;;;;;;149.43;25.63;;;17.20;99.90;;;;;;4878587;29;20701;-92
2023/01/18 12:50:18;;;;;;;169.93;26.25;;;17.30;99.90;;;;;;4863383;29;20059;-92
2023/01/18 12:52:48;;;;;;;;;;;17.00;99.90;;;;;;4863518;29;20029;-92
2023/01/18 12:55:20;;;;;;;163.23;28.10;;;17.00;99.90;;;;;;4847709;29;20418;-92
2023/01/18 12:57:49;;;;;;;177.18;25.58;;;16.90;99.90;;;;;;4863285;29;20048;-93
2023/01/18 13:00:24;;;;;;;167.77;27.35;;;16.80;99.90;;;;;;4878659;29;20121;-93
2023/01/18 13:02:53;;;;;;;;;;;16.80;99.90;;;;;;4878852;29;20045;-93
2023/01/18 13:05:41;;;;;;;148.25;23.77;;;16.90;99.90;;;;;;4847668;29;19952;-94
2023/01/18 13:08:22;;;;;;;152.75;25.45;;;16.80;99.90;;;;;;4878243;29;20044;-92
2023/01/18 13:10:49;;;;;;;151.23;23.20;;;16.80;99.90;;;;;;4880075;29;20029;-92
2023/01/18 13:13:25;;;;;;;179.57;25.92;;;16.80;99.90;;;;;;4878426;29;20033;-92
2023/01/18 13:16:28;;;;;;;161.55;23.25;;;16.80;99.90;;;;;;4878358;29;20053;-92
2023/01/18 13:19:04;;;;;;;184.77;24.70;;;16.70;99.90;;;;;;4863043;29;20127;-94
2023/01/18 13:21:45;;;;;;;179.85;25.92;;;16.70;99.90;;;;;;4885904;29;20031;-93
2023/01/18 13:24:56;;;;;;;163.90;25.80;;;16.80;99.90;;;;;;4936392;29;20035;-92
2023/01/18 13:27:26;;;;;;;152.43;24.60;;;17.00;99.90;;;;;;4878385;29;20474;-93
2023/01/18 13:29:53;;;;;;;172.10;24.63;;;17.00;99.90;;;;;;4878045;29;20045;-93
2023/01/18 13:32:35;;;;;;;156.23;22.90;;;17.00;99.90;;;;;;4877976;29;20029;-91
2023/01/18 13:35:17;;;;;;;151.20;22.23;;;17.00;99.90;;;;;;4878045;29;20057;-91
2023/01/18 13:38:10;;;;;;;195.95;26.70;;;16.80;99.90;;;;;;4878600;29;20059;-93
2023/01/18 13:41:07;;;;;;;148.75;23.02;;;16.80;99.90;;;;;;4878202;29;20066;-92
2023/01/18 13:43:36;;;;;;;146.75;24.17;;;16.80;99.90;;;;;;4804649;29;20063;-92
2023/01/18 13:46:20;;;;;;;152.13;23.10;;;16.70;99.90;;;;;;4804595;29;20430;-92
2023/01/18 13:49:00;;;;;;;;;;;16.70;99.90;;;;;;4790090;29;20043;-90
2023/01/18 13:51:41;;;;;;;150.85;25.75;;;16.60;99.90;;;;;;4791050;29;19945;-93
2023/01/18 13:54:17;;;;;;;143.82;22.83;;;16.60;99.90;;;;;;4790140;29;20083;-92
2023/01/18 14:16:36;;;;;;;143.13;24.02;;;16.40;99.90;;;;;;4938584;29;20055;-92
2023/01/18 14:19:22;;;;;;;149.77;24.00;;;16.40;99.90;;;;;;4924186;29;20123;-92
2023/01/18 14:36:27;;;;;;;170.32;23.48;;;16.10;99.90;;;;;;4977540;28;20059;-94
2023/01/18 14:39:11;;;;;;;157.27;22.98;;;16.10;99.90;;;;;;4977099;28;20392;-94
2023/01/18 14:41:42;;;;;;;;;;;16.10;99.90;;;;;;4977043;28;20035;-93
2023/01/18 14:44:15;;;;;;;157.82;22.65;;;16.10;99.90;;;;;;4963402;28;19996;-92
2023/01/18 14:46:46;;;;;;;159.63;22.83;;;16.10;99.90;;;;;;4976288;28;20031;-94
2023/01/18 14:49:17;;;;;;;160.15;25.17;;;16.20;99.90;;;;;;4976241;28;20070;-92
2023/01/18 14:51:52;;;;;;;152.45;25.88;;;16.10;99.90;;;;;;4976514;28;20038;-91
2023/01/18 14:54:23;;;;;;;147.48;23.30;;;16.10;99.90;;;;;;4961609;28;20031;-92
2023/01/18 14:56:50;;;;;;;152.63;23.02;;;16.10;99.90;;;;;;4960062;28;20520;-92
2023/01/18 14:59:19;;;;;;;152.82;23.05;;;16.00;99.90;;;;;;4960093;28;20038;-90
2023/01/18 15:01:57;;;;;;;154.43;23.98;;;16.00;99.90;;;;;;4960415;28;20031;-90
2023/01/18 15:04:26;;;;;;;167.25;23.65;;;16.00;99.90;;;;;;4975838;28;20039;-91
2023/01/18 15:07:04;;;;;;;141.25;22.13;;;16.00;99.90;;;;;;4961042;28;20019;-91
2023/01/18 15:09:33;;;;;;;152.00;21.67;;;16.00;99.90;;;;;;4975889;28;20031;-92
2023/01/18 15:12:06;;;;;;;162.05;21.48;;;15.90;99.90;;;;;;4959795;28;20031;-93
2023/01/18 15:14:36;;;;;;;124.55;21.42;;;15.80;99.90;;;;;;4960096;28;20034;-91
2023/01/18 15:17:12;;;;;;;141.25;22.20;;;15.80;99.90;;;;;;4975726;28;20046;-91
2023/01/18 15:19:45;;;;;;;123.82;20.10;;;15.70;99.90;;;;;;4975702;28;20080;-92
2023/01/18 15:22:16;;;;;;;142.55;24.70;;;15.70;99.90;;;;;;4975779;28;20034;-91
2023/01/18 15:24:45;;;;;;;121.97;19.00;;;15.70;99.90;;;;;;4975530;28;20092;-93
2023/01/18 15:27:17;;;;;;;141.88;20.50;;;15.60;99.90;;;;;;4959358;28;20101;-92
2023/01/18 15:29:56;;;;;;;127.63;20.48;;;15.50;99.90;;;;;;4959634;28;20091;-91
2023/01/18 15:32:32;;;;;;;136.77;20.08;;;15.50;99.90;;;;;;4975646;28;20407;-91
2023/01/18 15:35:01;;;;;;;120.25;21.55;;;15.50;99.90;;;;;;4975162;28;20038;-90
2023/01/18 15:37:36;;;;;;;128.18;19.45;;;15.40;99.90;;;;;;4959222;28;20049;-92
2023/01/18 15:40:26;;;;;;;104.78;17.05;;;15.40;99.90;;;;;;4975244;28;20057;-91
2023/01/18 15:43:07;;;;;;;107.28;19.45;;;15.30;99.90;;;;;;4975317;28;20058;-90
2023/01/18 15:45:49;;;;;;;110.03;21.20;;;15.30;99.90;;;;;;4959466;28;20436;-93
2023/01/18 15:48:22;;;;;;;123.63;23.38;;;15.30;99.90;;;;;;4975694;28;20031;-91
2023/01/18 15:51:03;;;;;;;108.28;19.65;;;15.20;99.90;;;;;;4959432;28;20065;-92
2023/01/18 15:53:51;;;;;;;104.32;17.52;;;15.20;99.90;;;;;;4959152;28;20031;-92
2023/01/18 15:56:24;;;;;;;120.75;25.42;;;15.20;99.90;;;;;;4958884;28;20070;-92
2023/01/18 15:58:54;;;;;;;94.35;15.88;;;15.20;99.90;;;;;;4959280;28;20031;-94
2023/01/18 16:01:26;;;;;;;103.15;17.50;;;15.20;99.90;;;;;;4959062;28;20081;-94
2023/01/18 16:03:59;;;;;;;85.32;16.98;;;15.20;99.90;;;;;;4958939;28;20035;-93
2023/01/18 16:06:28;;;;;;;90.60;16.67;;;15.20;99.90;;;;;;4975064;28;20065;-91
2023/01/18 16:09:08;;;;;;;98.13;16.30;;;15.20;99.90;;;;;;4960340;28;20051;-92
2023/01/18 16:11:34;;;;;;;109.32;15.95;;;15.20;99.90;;;;;;4964138;28;20050;-92
2023/01/18 16:14:06;;;;;;;83.72;14.63;;;15.10;99.90;;;;;;4958702;28;20089;-92
2023/01/18 16:16:38;;;;;;;106.03;17.25;;;15.10;99.90;;;;;;4974811;28;20093;-94
2023/01/18 16:19:28;;;;;;;115.05;18.10;;;15.10;99.90;;;;;;4974677;28;20027;-92
2023/01/18 16:22:02;;;;;;;106.35;16.83;;;15.00;99.90;;;;;;4974701;28;20035;-93
2023/01/18 16:24:50;;;;;;;117.35;18.13;;;15.00;99.90;;;;;;4974861;28;20036;-92
2023/01/18 16:27:21;;;;;;;116.25;17.55;;;15.00;99.90;;;;;;4958374;28;20039;-93
2023/01/18 16:29:58;;;;;;;112.30;17.52;;;15.00;99.90;;;;;;4958533;28;20548;-92
2023/01/18 16:32:30;;;;;;;116.82;19.85;;;15.00;99.90;;;;;;4958518;28;20085;-92
2023/01/18 16:35:11;;;;;;;138.43;19.65;;;15.00;99.90;;;;;;4974350;28;20039;-92
2023/01/18 16:37:43;;;;;;;106.22;17.98;;;15.00;99.90;;;;;;4974509;28;20559;-93
2023/01/18 16:40:18;;;;;;;127.95;19.02;;;15.00;99.90;;;;;;4958463;28;20109;-92
2023/01/18 16:43:06;;;;;;;134.05;20.38;;;15.00;99.90;;;;;;4958564;28;20039;-92
2023/01/18 16:45:36;;;;;;;144.43;20.70;;;15.10;99.90;;;;;;4958418;28;20037;-93
2023/01/18 16:48:12;;;;;;;119.97;18.35;;;15.10;99.90;;;;;;4958128;28;20126;-91
2023/01/18 16:50:39;;;;;;;107.40;18.65;;;15.00;99.90;;;;;;4958405;28;20057;-93
2023/01/18 16:53:07;;;;;;;123.53;17.85;;;15.10;99.90;;;;;;4958140;28;20047;-94
2023/01/18 16:55:34;;;;;;;130.55;19.27;;;15.10;99.90;;;;;;4958073;28;20504;-93
2023/01/18 16:58:00;;;;;;;118.78;17.85;;;15.00;99.90;;;;;;4958368;28;20034;-91
2023/01/18 17:00:49;;;;;;;135.05;20.60;;;15.00;99.90;;;;;;4958349;28;20031;-92
2023/01/18 17:03:16;;;;;;;111.45;20.08;;;15.00;99.90;;;;;;4958432;28;20027;-91
2023/01/18 17:05:42;;;;;;;110.47;18.55;;;15.00;99.90;;;;;;4958177;28;20035;-91
2023/01/18 17:08:14;;;;;;;135.48;18.90;;;15.00;99.90;;;;;;4958125;28;20037;-93
2023/01/18 17:10:43;;;;;;;116.35;19.17;;;15.00;99.90;;;;;;4958005;28;20027;-94
2023/01/18 17:13:10;;;;;;;116.25;18.05;;;15.00;99.90;;;;;;4958519;28;20043;-94
2023/01/18 17:15:42;;;;;;;116.95;18.92;;;15.00;99.90;;;;;;4957891;28;20035;-91
2023/01/18 17:18:24;;;;;;;140.10;27.10;;;15.00;99.90;;;;;;4959887;28;20035;-93
2023/01/18 17:21:07;;;;;;;138.82;20.90;;;15.00;99.90;;;;;;4959037;28;20392;-93
2023/01/18 17:24:05;;;;;;;110.10;20.33;;;15.00;99.90;;;;;;4977015;28;20047;-93
2023/01/18 17:27:19;;;;;;;113.03;19.23;;;15.10;99.90;;;;;;4961653;28;20043;-93
2023/01/18 17:29:56;;;;;;;93.35;19.40;;;15.10;99.90;;;;;;4992856;23;20201;-94
2023/01/18 17:32:57;;;;;;;114.15;18.88;;;15.00;99.90;;;;;;5151803;23;20416;-94
2023/01/18 17:35:26;;;;;;;116.53;18.70;;;15.00;99.90;;;;;;4964465;28;20027;-93
2023/01/18 17:37:56;;;;;;;94.03;16.80;;;15.00;99.90;;;;;;4962023;28;20027;-93
2023/01/18 17:40:29;;;;;;;87.15;16.42;;;15.00;99.90;;;;;;4962153;28;20030;-93
2023/01/18 17:42:56;;;;;;;81.18;16.48;;;15.00;99.90;;;;;;4959952;29;20629;-94
2023/01/18 17:45:26;;;;;;;84.93;18.88;;;15.00;99.90;;;;;;4944117;29;20110;-95
2023/01/18 17:48:12;;;;;;;;;;;;;;;;;;;;;
2023/01/18 17:50:49;;;;;;;94.72;19.35;;;15.00;99.90;;;;;;4961136;29;20028;-94
2023/01/18 17:53:16;;;;;;;86.53;15.13;;;15.00;99.90;;;;;;4950052;29;20042;-92
2023/01/18 17:55:43;;;;;;;56.17;14.88;;;15.00;99.90;;;;;;4961918;29;20043;-92
2023/01/18 17:58:12;;;;;;;76.07;14.18;;;15.00;99.90;;;;;;4943166;29;20031;-94
2023/01/18 18:00:39;;;;;;;68.43;13.90;;;15.00;99.90;;;;;;4958678;29;20039;-94
2023/01/18 18:03:14;;;;;;;73.53;14.82;;;15.00;99.90;;;;;;4942547;29;20028;-94
2023/01/18 18:05:41;;;;;;;84.75;15.68;;;14.90;99.90;;;;;;4963525;29;20054;-93
2023/01/18 18:08:08;;;;;;;81.47;15.10;;;15.00;99.90;;;;;;4944169;29;20031;-93
2023/01/18 18:10:38;;;;;;;60.65;14.25;;;15.00;99.90;;;;;;4943575;29;20054;-95
2023/01/18 18:13:07;;;;;;;62.88;13.63;;;15.00;99.90;;;;;;4958717;28;20034;-94
2023/01/18 18:15:37;;;;;;;59.88;13.20;;;15.00;99.90;;;;;;4943726;29;20042;-93
2023/01/18 18:18:12;;;;;;;58.50;14.43;;;15.00;99.90;;;;;;4947754;29;20034;-94
2023/01/18 18:21:09;;;;;;;66.03;15.85;;;14.90;99.90;;;;;;4976192;28;20027;-94
2023/01/18 18:23:37;;;;;;;61.60;14.75;;;15.00;99.90;;;;;;4935061;29;20024;-93
2023/01/18 18:26:20;;;;;;;63.47;14.52;;;14.90;99.90;;;;;;4920672;29;20083;-93
2023/01/18 18:28:52;;;;;;;67.70;15.88;;;14.90;99.90;;;;;;4925662;29;20039;-94
2023/01/18 18:31:20;;;;;;;88.63;16.27;;;14.90;99.90;;;;;;4986053;23;20070;-93
2023/01/18 18:33:47;;;;;;;78.00;15.15;;;14.90;99.90;;;;;;4943139;29;20038;-92
2023/01/18 18:36:14;;;;;;;80.28;15.30;;;14.90;99.90;;;;;;4954852;23;20055;-92
2023/01/18 18:38:43;;;;;;;66.82;13.60;;;14.90;99.90;;;;;;4945343;29;20035;-94
2023/01/18 18:41:13;;;;;;;70.82;14.40;;;14.90;99.90;;;;;;4942412;29;20031;-94
2023/01/18 18:43:39;;;;;;;84.60;15.68;;;14.90;99.90;;;;;;4941393;29;20027;-95
2023/01/18 18:46:06;;;;;;;69.57;14.75;;;14.90;99.90;;;;;;4938892;29;20039;-93
2023/01/18 18:48:42;;;;;;;94.95;17.38;;;14.90;99.90;;;;;;4958386;29;20036;-91
2023/01/18 18:51:08;;;;;;;67.97;14.68;;;14.90;99.90;;;;;;4941330;29;20035;-93
2023/01/18 18:53:38;;;;;;;86.38;16.02;;;14.90;99.90;;;;;;4941268;29;20055;-93
2023/01/18 18:56:08;;;;;;;84.40;15.32;;;14.90;99.90;;;;;;4941507;29;20039;-93
2023/01/18 18:58:38;;;;;;;91.47;15.13;;;14.90;99.90;;;;;;4941085;29;20038;-93
2023/01/18 19:01:21;;;;;;;83.05;15.30;;;14.90;99.90;;;;;;4941048;29;20063;-91
2023/01/18 19:03:49;;;;;;;75.47;16.20;;;14.90;99.90;;;;;;4956841;29;20408;-92
2023/01/18 19:06:21;;;;;;;97.85;17.65;;;14.90;99.90;;;;;;4940625;29;20504;-91
2023/01/18 19:08:48;;;;;;;94.55;17.50;;;15.00;99.90;;;;;;4957720;29;20095;-92
2023/01/18 19:11:15;;;;;;;108.43;17.38;;;14.90;99.90;;;;;;4925488;29;20039;-94
2023/01/18 19:13:43;;;;;;;101.13;17.67;;;14.90;99.90;;;;;;4937330;29;20512;-92
2023/01/18 19:16:10;;;;;;;114.00;21.58;;;14.90;99.90;;;;;;4927531;29;20031;-92
2023/01/18 19:18:37;;;;;;;101.25;17.83;;;14.90;99.90;;;;;;4940221;29;20046;-94
2023/01/18 19:21:03;;;;;;;111.35;18.63;;;15.00;99.90;;;;;;4940452;29;20098;-92
2023/01/18 19:23:30;;;;;;;108.22;17.67;;;14.90;99.90;;;;;;4938117;29;20149;-91
2023/01/18 19:25:57;;;;;;;120.38;28.10;;;14.90;99.90;;;;;;4938115;29;20373;-94
2023/01/18 19:28:24;;;;;;;125.32;21.75;;;15.00;99.90;;;;;;4944048;29;20059;-91
2023/01/18 19:30:50;;;;;;;101.97;18.63;;;15.00;99.90;;;;;;4936307;29;20030;-92
2023/01/18 19:33:17;;;;;;;127.05;21.13;;;15.00;99.90;;;;;;4936923;29;20548;-92
2023/01/18 19:35:45;;;;;;;118.85;18.08;;;15.00;99.90;;;;;;4938128;29;20058;-93
2023/01/18 19:38:13;;;;;;;124.20;19.67;;;15.00;99.90;;;;;;4958371;28;20042;-91
2023/01/18 19:40:39;;;;;;;120.30;19.63;;;15.00;99.90;;;;;;4941648;29;20027;-91
2023/01/18 19:43:06;;;;;;;145.93;20.75;;;15.00;99.90;;;;;;4926948;29;20066;-93
2023/01/18 19:45:34;;;;;;;129.85;18.50;;;15.00;99.90;;;;;;4921429;29;20091;-93
2023/01/18 19:48:01;;;;;;;127.88;19.17;;;15.00;99.90;;;;;;4936557;29;20039;-93
2023/01/18 19:50:29;;;;;;;134.15;23.08;;;15.00;99.90;;;;;;4920971;29;20032;-92
2023/01/18 19:52:56;;;;;;;144.90;20.38;;;14.90;99.90;;;;;;4937242;29;20024;-93
2023/01/18 19:55:28;;;;;;;136.65;20.17;;;14.90;99.90;;;;;;4921003;29;20086;-92
2023/01/18 19:57:56;;;;;;;126.93;20.20;;;14.90;99.90;;;;;;4923366;29;20032;-93
2023/01/18 20:00:22;;;;;;;157.00;20.23;;;14.90;99.90;;;;;;4924483;29;20024;-94
2023/01/18 20:03:22;;;;;;;154.88;21.85;;;14.80;99.90;;;;;;5169778;23;20055;-93
2023/01/18 20:21:20;;;;;;;134.73;22.17;;;14.70;99.90;;;;;;5096233;23;20232;-92
2023/01/18 20:23:59;;;;;;;126.05;20.80;;;14.70;99.90;;;;;;4944275;28;20026;-91
2023/01/18 20:26:47;;;;;;;126.13;22.02;;;14.70;99.90;;;;;;4937313;29;20042;-93
2023/01/18 20:29:17;;;;;;;141.60;19.58;;;14.60;99.90;;;;;;4904956;29;20036;-93
2023/01/18 20:31:45;;;;;;;137.90;21.25;;;14.60;99.90;;;;;;4905153;29;20038;-93
2023/01/18 20:34:12;;;;;;;151.10;20.83;;;14.60;99.90;;;;;;4905118;29;20032;-92
2023/01/18 20:36:38;;;;;;;138.32;22.55;;;14.60;99.90;;;;;;4905782;29;20442;-94
2023/01/18 20:39:05;;;;;;;119.88;19.15;;;14.60;99.90;;;;;;4904617;29;20091;-92
2023/01/18 20:41:32;;;;;;;118.93;21.48;;;14.60;99.90;;;;;;4904855;29;20023;-88
2023/01/18 20:43:59;;;;;;;139.35;21.10;;;14.60;99.90;;;;;;4904548;29;20024;-91
2023/01/18 20:46:26;;;;;;;131.55;21.20;;;14.60;99.90;;;;;;4904390;29;20060;-93
2023/01/18 20:48:54;;;;;;;134.30;23.13;;;14.70;99.90;;;;;;4904667;29;20502;-92
2023/01/18 20:51:22;;;;;;;111.85;22.58;;;14.70;99.90;;;;;;4904446;29;20040;-91
2023/01/18 20:53:50;;;;;;;134.30;21.00;;;14.70;99.90;;;;;;4905160;29;20024;-92
2023/01/18 20:56:17;;;;;;;114.18;19.23;;;14.70;99.90;;;;;;4904576;29;20040;-92
2023/01/18 20:58:45;;;;;;;136.25;20.67;;;14.70;99.90;;;;;;4908253;29;20171;-93
2023/01/18 21:01:18;;;;;;;125.45;19.35;;;14.70;99.90;;;;;;4912762;29;20031;-91
2023/01/18 21:04:02;;;;;;;135.73;19.73;;;14.70;99.90;;;;;;4916765;29;20071;-92
2023/01/18 21:06:32;;;;;;;139.25;22.23;;;14.80;99.90;;;;;;4913566;29;20293;-92
2023/01/18 21:11:30;;;;;;;146.48;23.80;;;14.70;99.90;;;;;;5090131;23;20063;-92
2023/01/18 21:13:58;;;;;;;133.65;23.33;;;14.80;99.90;;;;;;4933414;28;20097;-93
2023/01/18 21:16:34;;;;;;;125.88;20.30;;;14.70;99.90;;;;;;4953902;28;20125;-92
2023/01/18 21:19:01;;;;;;;136.65;20.98;;;14.80;99.90;;;;;;4950518;28;20110;-92
2023/01/18 21:21:28;;;;;;;129.90;20.35;;;14.80;99.90;;;;;;4949408;28;20030;-90